Home > Products > Valid Products > TAF

000
FTUS43 KFSD 251139
TAFSUX
TAF
KSUX 251139Z 2512/2612 VRB04KT P6SM SKC
     FM260200 11006KT P6SM SKC=



000
FTUS43 KFSD 251139
TAFFSD
TAF
KFSD 251139Z 2512/2612 35005KT P6SM FEW150
     FM252300 09003KT P6SM SKC
     FM260600 12008KT P6SM SCT250=



000
FTUS43 KFSD 251139
TAFHON
TAF
KHON 251139Z 2512/2612 VRB04KT P6SM SCT150
     FM260500 14009KT P6SM SCT250=



000
FTUS43 KFSD 250520
TAFFSD
TAF
KFSD 250520Z 2506/2606 33005KT P6SM SCT200
     FM252300 10003KT P6SM SKC=



000
FTUS43 KFSD 250520
TAFHON
TAF
KHON 250520Z 2506/2606 32004KT P6SM SCT200
     FM251900 VRB03KT P6SM SCT250
     FM260000 10005KT P6SM SKC=



000
FTUS43 KFSD 250520
TAFSUX
TAF
KSUX 250520Z 2506/2606 33005KT P6SM SKC
     FM260000 11003KT P6SM SKC=



000
FTUS43 KFSD 242320
TAFHON
TAF
KHON 242320Z 2500/2524 28007KT P6SM SCT250
     FM250300 32004KT P6SM FEW120
     FM251100 VRB03KT P6SM SCT250=



000
FTUS43 KFSD 242320
TAFFSD
TAF
KFSD 242320Z 2500/2524 30004KT P6SM SCT250
     FM250600 34007KT P6SM SCT200
     FM251500 VRB03KT P6SM SCT250=



000
FTUS43 KFSD 242320
TAFSUX
TAF
KSUX 242320Z 2500/2524 28004KT P6SM SCT250
     FM250600 34007KT P6SM SCT250
     FM251500 VRB03KT P6SM SCT250=



000
FTUS43 KFSD 241729
TAFHON
TAF
KHON 241729Z 2418/2518 28007KT P6SM BKN250
     FM250300 32004KT P6SM FEW120
     FM251100 VRB03KT P6SM BKN250=



000
FTUS43 KFSD 241729
TAFSUX
TAF
KSUX 241729Z 2418/2518 30008KT P6SM BKN250
     FM250000 28004KT P6SM SCT250
     FM250600 34007KT P6SM SCT250
     FM251500 VRB03KT P6SM SCT250=



000
FTUS43 KFSD 241729
TAFFSD
TAF
KFSD 241729Z 2418/2518 29008KT P6SM BKN250
     FM242330 30004KT P6SM SCT250
     FM250600 34007KT P6SM SCT200
     FM251500 VRB03KT P6SM SCT250=



000
FTUS43 KFSD 241429 AAC
TAFFSD
TAF AMD
KFSD 241429Z 2414/2512 27006KT P6SM BKN250
     FM241800 28009KT P6SM BKN250
     FM250600 33005KT P6SM SCT200=



000
FTUS43 KFSD 241429 AAC
TAFFSD
TAF AMD
KFSD 241429Z 2414/2512 27006KT P6SM BKN250
     FM241800 28009KT P6SM BKN250
     FM250600 33005KT P6SM SCT200=



000
FTUS43 KFSD 241253 AAB
TAFFSD
TAF AMD
KFSD 241253Z 2413/2512 24004KT 2SM BR SCT003 BKN250
      TEMPO 2413/2414 1/2SM FG VV002
     FM241500 28007KT P6SM BKN250
     FM250600 33005KT P6SM SCT200=



000
FTUS43 KFSD 241159 AAA
TAFHON
TAF AMD
KHON 241159Z 2412/2512 29004KT P6SM BKN250
     FM241600 28008KT P6SM BKN250
     FM250300 30004KT P6SM SCT150=



000
FTUS43 KFSD 241152 AAA
TAFFSD
TAF AMD
KFSD 241152Z 2412/2512 22004KT 3SM BR SCT004 BKN250
     FM241500 28007KT P6SM BKN250
     FM250600 33005KT P6SM SCT200=



000
FTUS43 KFSD 241120
TAFFSD
TAF
KFSD 241120Z 2412/2512 22004KT 6SM BR BKN250
      TEMPO 2412/2415 3SM BR SCT004 BKN250
     FM241500 28007KT P6SM BKN250
     FM250600 33005KT P6SM SCT200=



000
FTUS43 KFSD 241120
TAFHON
TAF
KHON 241120Z 2412/2512 29004KT 3/4SM BR BKN002
      TEMPO 2412/2413 2SM BR SCT002 BKN250
     FM241300 28005KT 2SM BR SCT003 BKN250
     FM241400 28007KT P6SM BKN250
     FM250300 30004KT P6SM SCT150=



000
FTUS43 KFSD 241120
TAFSUX
TAF
KSUX 241120Z 2412/2512 19006KT P6SM BKN250
      TEMPO 2412/2414 5SM BR
     FM241400 24008KT P6SM BKN250
     FM241800 29009KT P6SM BKN250
     FM250600 34005KT P6SM SCT250=



000
FTUS43 KFSD 241005 AAA
TAFSUX
TAF AMD
KSUX 241005Z 2410/2506 12006KT P6SM BKN250
      TEMPO 2410/2414 5SM BR
     FM241400 28007KT P6SM BKN250=



000
FTUS43 KFSD 241005 AAA
TAFSUX
TAF AMD
KSUX 241005Z 2410/2506 12006KT P6SM BKN250
      TEMPO 2410/2414 5SM BR
     FM241400 28007KT P6SM BKN250=



000
FTUS43 KFSD 241003 AAC
TAFHON
TAF AMD
KHON 241003Z 2410/2506 30004KT 1/2SM FG OVC002
      TEMPO 2410/2414 1SM BR SCT002 BKN250
     FM241600 28007KT P6SM BKN250=



000
FTUS43 KFSD 241003 AAC
TAFHON
TAF AMD
KHON 241003Z 2410/2506 30004KT 1/2SM FG OVC002
      TEMPO 2410/2414 1SM BR SCT002 BKN250
     FM241600 28007KT P6SM BKN250=



000
FTUS43 KFSD 240953 AAB
TAFHON
TAF AMD
KHON 240953Z 2410/2506 VRB04KT 1SM BR SCT002 BKN250
      TEMPO 2410/2414 1/2SM FG OVC002
     FM241600 28007KT P6SM BKN250=



000
FTUS43 KFSD 240908 AAA
TAFHON
TAF AMD
KHON 240908Z 2409/2506 20004KT 6SM BR BKN250
      TEMPO 2410/2414 3SM BR
     FM241600 28007KT P6SM BKN250=



000
FTUS43 KFSD 240855 AAA
TAFFSD
TAF AMD
KFSD 240855Z 2409/2506 19008KT P6SM BKN250
     FM241200 19003KT 4SM BR SCT004
      TEMPO 2412/2413 1SM BR BKN004
     FM241400 28007KT P6SM BKN250=



000
FTUS43 KFSD 240520
TAFFSD
TAF
KFSD 240520Z 2406/2506 18005KT P6SM BKN250
     FM241000 19003KT 5SM BR SCT004
      TEMPO 2410/2413 1SM BR OVC004
     FM241400 28007KT P6SM BKN250=



000
FTUS43 KFSD 240520
TAFSUX
TAF
KSUX 240520Z 2406/2506 14005KT P6SM BKN250
     FM241000 15006KT 5SM BR SCT004
     FM241400 28007KT P6SM BKN250=



000
FTUS43 KFSD 240520
TAFHON
TAF
KHON 240520Z 2406/2506 17004KT P6SM BKN250
     FM240900 22004KT P6SM BKN250
     FM241600 28007KT P6SM BKN250=



000
FTUS43 KFSD 232320
TAFSUX
TAF
KSUX 232320Z 2400/2424 14005KT P6SM BKN250
     FM240800 15006KT 5SM BR SCT006
     FM241000 15006KT 2SM BR OVC004
     FM241400 23008KT P6SM BKN250=



000
FTUS43 KFSD 232320
TAFFSD
TAF
KFSD 232320Z 2400/2424 16005KT P6SM BKN250
     FM240800 15005KT 4SM BR SCT006
     FM241000 15004KT 1SM BR OVC004
     FM241400 23007KT 5SM BR OVC006
     FM241500 26007KT P6SM SCT009 BKN250=



000
FTUS43 KFSD 232320
TAFHON
TAF
KHON 232320Z 2400/2424 17004KT P6SM SCT250
     FM241500 26007KT P6SM BKN250=



000
FTUS43 KFSD 231741
TAFFSD
TAF
KFSD 231741Z 2318/2418 21007KT P6SM SKC
     FM232300 16005KT P6SM SCT250
     FM240800 16007KT 4SM BR SCT150
     FM240900 17005KT 2SM BR SCT006
     FM241000 17006KT 2SM BR OVC004
     FM241430 23007KT 4SM BR OVC006
     FM241530 26007KT P6SM SCT009 BKN250=



000
FTUS43 KFSD 231741
TAFHON
TAF
KHON 231741Z 2318/2418 19009KT P6SM FEW250
     FM240000 14004KT P6SM SCT250
     FM241500 26007KT P6SM BKN250=



000
FTUS43 KFSD 231741
TAFHON
TAF
KHON 231741Z 2318/2418 19009KT P6SM FEW250
     FM240000 14004KT P6SM SCT250
     FM241500 26007KT P6SM BKN250=



000
FTUS43 KFSD 231741
TAFSUX
TAF
KSUX 231741Z 2318/2418 VRB04KT P6SM SKC
     FM232000 21007KT P6SM SCT250
     FM240000 14005KT P6SM SCT250
     FM240800 15006KT 3SM BR SCT150
     FM241000 15006KT 2SM BR OVC006
     FM241400 23008KT P6SM BKN250=



000
FTUS43 KFSD 231741
TAFFSD
TAF
KFSD 231741Z 2318/2418 21007KT P6SM SKC
     FM232300 16005KT P6SM SCT250
     FM240800 16007KT 4SM BR SCT150
     FM240900 17005KT 2SM BR SCT006
     FM241000 17006KT 2SM BR OVC004
     FM241430 23007KT 4SM BR OVC006
     FM241530 26007KT P6SM SCT009 BKN250=



000
FTUS43 KFSD 231741
TAFSUX
TAF
KSUX 231741Z 2318/2418 VRB04KT P6SM SKC
     FM232000 21007KT P6SM SCT250
     FM240000 14005KT P6SM SCT250
     FM240800 15006KT 3SM BR SCT150
     FM241000 15006KT 2SM BR OVC006
     FM241400 23008KT P6SM BKN250=



000
FTUS43 KFSD 231454 AAB
TAFSUX
TAF AMD
KSUX 231454Z 2315/2412 VRB02KT P6SM FEW002
     FM231700 25006KT P6SM SKC
     FM232000 21007KT P6SM SKC
     FM240000 14005KT P6SM SCT250
     FM240800 15006KT 3SM BR SCT150=



000
FTUS43 KFSD 231454 AAB
TAFSUX
TAF AMD
KSUX 231454Z 2315/2412 VRB02KT P6SM FEW002
     FM231700 25006KT P6SM SKC
     FM232000 21007KT P6SM SKC
     FM240000 14005KT P6SM SCT250
     FM240800 15006KT 3SM BR SCT150=



000
FTUS43 KFSD 231441 AAB
TAFFSD
TAF AMD
KFSD 231441Z 2315/2412 VRB03KT P6SM SCT250
     FM231700 22007KT P6SM SKC
     FM232300 16005KT P6SM SCT250
     FM240700 16007KT 4SM BR SCT150
     FM240900 17005KT 2SM BR SCT006=



000
FTUS43 KFSD 231441 AAB
TAFFSD
TAF AMD
KFSD 231441Z 2315/2412 VRB03KT P6SM SCT250
     FM231700 22007KT P6SM SKC
     FM232300 16005KT P6SM SCT250
     FM240700 16007KT 4SM BR SCT150
     FM240900 17005KT 2SM BR SCT006=



000
FTUS43 KFSD 231347 AAA
TAFSUX
TAF AMD
KSUX 231347Z 2314/2412 VRB02KT 1/4SM FG VV002
     FM231430 VRB03KT 1/2SM FG BKN003
      TEMPO 2315/2316 3SM BR SCT005
     FM231600 25006KT P6SM SKC
     FM232000 21007KT P6SM SKC
     FM240000 14005KT P6SM SCT250
     FM240800 15006KT 3SM BR SCT150=



000
FTUS43 KFSD 231122
TAFHON
TAF
KHON 231122Z 2312/2412 15004KT P6SM SKC
     FM231700 19009KT P6SM SKC
     FM240000 16004KT P6SM SKC=



000
FTUS43 KFSD 231122
TAFFSD
TAF
KFSD 231122Z 2312/2412 VRB02KT 1/4SM FG VV002
     FM231300 23006KT 1/2SM FG BKN003
      TEMPO 2315/2316 3SM BR SCT006
     FM231600 22007KT P6SM SKC
     FM232300 16005KT P6SM SCT250
     FM240700 16007KT 4SM BR SCT150
     FM240900 17005KT 2SM BR SCT006=



000
FTUS43 KFSD 231122
TAFSUX
TAF
KSUX 231122Z 2312/2412 VRB03KT 1/4SM FG VV002
     FM231300 29004KT 1/2SM FG BKN003
      TEMPO 2314/2316 3SM BR SCT005
     FM231600 25006KT P6SM SKC
     FM232000 21007KT P6SM SKC
     FM240000 14005KT P6SM SCT250
     FM240800 15006KT 3SM BR SCT150=



000
FTUS43 KFSD 231101 AAB
TAFSUX
TAF AMD
KSUX 231101Z 2311/2406 VRB03KT 1/4SM FG VV002
      TEMPO 2311/2312 1SM BR BKN004
     FM231300 29004KT 1/2SM FG SCT003
      TEMPO 2314/2316 3SM BR
     FM231600 25006KT P6SM SCT250
     FM232000 18006KT P6SM SKC=



000
FTUS43 KFSD 230631 AAB
TAFFSD
TAF AMD
KFSD 230631Z 2307/2406 VRB02KT 1/4SM FG VV002
     FM231300 23006KT 1/2SM FG SCT003
      TEMPO 2315/2316 3SM BR
     FM231600 19006KT P6SM SCT250=



000
FTUS43 KFSD 230522
TAFSUX
TAF
KSUX 230522Z 2306/2406 VRB03KT P6SM OVC012
      TEMPO 2306/2308 SCT012 OVC025
     FM230800 VRB03KT 4SM BR OVC007
      TEMPO 2309/2312 1SM BR BKN004
     FM231300 19006KT P6SM SCT250
     FM231800 17006KT P6SM SKC=



000
FTUS43 KFSD 230522
TAFFSD
TAF
KFSD 230522Z 2306/2406 VRB03KT 3SM BR SCT004
      TEMPO 2306/2310 1/2SM FG VV002
     FM231000 VRB03KT 5SM BR BKN004
     FM231300 23006KT P6SM SCT010
     FM231600 19006KT P6SM SCT250=



000
FTUS43 KFSD 230522
TAFHON
TAF
KHON 230522Z 2306/2406 22005KT P6SM SKC
     FM231000 17004KT P6SM SKC
     FM231600 18009KT P6SM SKC=



000
FTUS43 KFSD 230248 AAA
TAFSUX
TAF AMD
KSUX 230248Z 2303/2324 23005KT P6SM SCT007 BKN025
     FM230500 29007KT P6SM BKN007
     FM230900 VRB03KT P6SM SKC
     FM231500 19006KT P6SM SCT250=



000
FTUS43 KFSD 230246 AAB
TAFFSD
TAF AMD
KFSD 230246Z 2303/2324 28007KT P6SM SCT008 BKN020
      TEMPO 2303/2306 BKN008
     FM230600 24004KT P6SM SCT100
     FM231500 19006KT P6SM SCT250=



000
FTUS43 KFSD 230207 AAA
TAFFSD
TAF AMD
KFSD 230207Z 2302/2324 28007KT P6SM BKN007 BKN070
     FM230300 28007KT P6SM SCT015 SCT100
     FM230500 24004KT P6SM SKC
     FM231500 19006KT P6SM SCT250=



000
FTUS43 KFSD 230207 AAA
TAFFSD
TAF AMD
KFSD 230207Z 2302/2324 28007KT P6SM BKN007 BKN070
     FM230300 28007KT P6SM SCT015 SCT100
     FM230500 24004KT P6SM SKC
     FM231500 19006KT P6SM SCT250=



000
FTUS43 KFSD 222326 CCA
TAFSUX
TAF COR
KSUX 222326Z 2300/2324 24012KT 6SM -RA SCT015 OVC040
      TEMPO 2300/2301 3SM SHRA
     FM230300 23005KT P6SM BKN035
     FM230500 29007KT P6SM BKN200
     FM230900 VRB03KT P6SM SKC
     FM231500 19006KT P6SM SCT250=



000
FTUS43 KFSD 222326 CCA
TAFFSD
TAF COR
KFSD 222326Z 2300/2324 20010KT 6SM BR SCT015 OVC040
      TEMPO 2300/2302 BKN015
     FM230200 28007KT P6SM SCT015 BKN070
     FM230500 24004KT P6SM SKC
     FM231500 19006KT P6SM SCT250=



000
FTUS43 KFSD 222326 CCA
TAFHON
TAF COR
KHON 222326Z 2300/2324 29009KT P6SM SCT025 BKN050
     FM230300 25005KT P6SM SKC
     FM231000 22004KT P6SM SKC
     FM231600 15006KT P6SM SKC=



000
FTUS43 KFSD 222320
TAFHON
TAF
KHON 222320Z 2300/2324 29009KT P6SM SCT025 BKN050
     FM230300 25005KT P6SM SKC
     FM231000 22004KT P6SM SKC
     FM231600 15006KT P6SM SKC=



000
FTUS43 KFSD 222320
TAFSUX
TAF
KSUX 222320Z 2300/2324 24012KT 6SM -RA SCT015 OVC040
      TEMPO 2300/2301 3SM SHRA
     FM230300 23005KT P6SM BKN035
     FM230500 29007KT P6SM BKN200
     FM230900 VRB03KT P6SM SKC
     FM231500 19006KT P6SM SCT250=



000
FTUS43 KFSD 222320
TAFFSD
TAF
KFSD 222320Z 2300/2324 20010KT 6SM -RA SCT015 OVC040
     FM230100 28007KT P6SM SCT008 BKN070
     FM230500 24004KT P6SM SKC
     FM231500 19006KT P6SM SCT250=



000
FTUS43 KFSD 222204 AAA
TAFSUX
TAF AMD
KSUX 222204Z 2222/2318 24012KT 6SM -RA SCT015 OVC040
      TEMPO 2222/2301 3SM SHRA
     FM230300 23005KT P6SM BKN035
     FM230500 29007KT P6SM BKN200
     FM230900 VRB03KT P6SM SKC=



000
FTUS43 KFSD 222203 AAA
TAFFSD
TAF AMD
KFSD 222203Z 2222/2318 20010KT 6SM -RA SCT015 OVC040
      TEMPO 2222/2224 3SM RA BR
     FM230100 28007KT P6SM SCT008 BKN070
     FM230500 26004KT P6SM SKC
     FM231500 22006KT P6SM SKC=



000
FTUS43 KFSD 221744
TAFFSD
TAF
KFSD 221744Z 2218/2318 17017G25KT P6SM BKN090
     FM221900 17014G21KT P6SM SCT040 BKN070
     FM222100 20010KT 6SM -RA SCT015 OVC040
      TEMPO 2222/2224 4SM RA BR OVC015
     FM230100 28007KT P6SM SCT008 BKN070
     FM230500 26004KT P6SM SKC
     FM231500 22006KT P6SM SKC=



000
FTUS43 KFSD 221744
TAFHON
TAF
KHON 221744Z 2218/2318 21010KT 6SM -RA SCT030 OVC060
     FM222000 29009KT P6SM BKN060
     FM230100 25005KT P6SM SKC
     FM231000 19004KT P6SM SKC=



000
FTUS43 KFSD 221744
TAFSUX
TAF
KSUX 221744Z 2218/2318 16017G25KT P6SM SCT180
     FM222200 19012KT 6SM -RA SCT015 OVC040
      TEMPO 2222/2301 4SM SHRA BKN015
     FM230300 23005KT P6SM BKN015
     FM230500 29007KT P6SM BKN200
     FM230900 VRB03KT P6SM SKC=



000
FTUS43 KFSD 221744
TAFSUX
TAF
KSUX 221744Z 2218/2318 16017G25KT P6SM SCT180
     FM222200 19012KT 6SM -RA SCT015 OVC040
      TEMPO 2222/2301 4SM SHRA BKN015
     FM230300 23005KT P6SM BKN015
     FM230500 29007KT P6SM BKN200
     FM230900 VRB03KT P6SM SKC=



000
FTUS43 KFSD 221744
TAFHON
TAF
KHON 221744Z 2218/2318 21010KT 6SM -RA SCT030 OVC060
     FM222000 29009KT P6SM BKN060
     FM230100 25005KT P6SM SKC
     FM231000 19004KT P6SM SKC=



000
FTUS43 KFSD 221744
TAFFSD
TAF
KFSD 221744Z 2218/2318 17017G25KT P6SM BKN090
     FM221900 17014G21KT P6SM SCT040 BKN070
     FM222100 20010KT 6SM -RA SCT015 OVC040
      TEMPO 2222/2224 4SM RA BR OVC015
     FM230100 28007KT P6SM SCT008 BKN070
     FM230500 26004KT P6SM SKC
     FM231500 22006KT P6SM SKC=



000
FTUS43 KFSD 221701 AAA
TAFFSD
TAF AMD
KFSD 221701Z 2217/2312 17017G25KT P6SM BKN090
     FM221900 17014G21KT P6SM SCT040 BKN070
     FM222100 20010KT 4SM -RA BKN015 OVC040
     FM230100 23007KT P6SM SCT008 BKN070
     FM230500 26004KT P6SM SKC=



000
FTUS43 KFSD 221701 AAA
TAFFSD
TAF AMD
KFSD 221701Z 2217/2312 17017G25KT P6SM BKN090
     FM221900 17014G21KT P6SM SCT040 BKN070
     FM222100 20010KT 4SM -RA BKN015 OVC040
     FM230100 23007KT P6SM SCT008 BKN070
     FM230500 26004KT P6SM SKC=



    US Dept of Commerce
    National Oceanic and Atmospheric Administration
    National Weather Service
    1325 East West Highway
    Silver Spring, MD 20910
    Page Author: NWS Internet Services Team
Disclaimer
Information Quality
Credits
Glossary
Privacy Policy
Freedom of Information Act (FOIA)
About Us
Career Opportunities